sensor_id;sensor_type;location;lat;lon;timestamp;P1;durP1;ratioP1;P2;durP2;ratioP2
22080;SDS011;11207;59.512;18.050;2022-12-29T00:02:20;4.13;;;3.83;;
22080;SDS011;11207;59.512;18.050;2022-12-29T00:04:45;4.43;;;4.10;;
22080;SDS011;11207;59.512;18.050;2022-12-29T00:07:11;3.90;;;3.60;;
22080;SDS011;11207;59.512;18.050;2022-12-29T00:09:37;3.90;;;3.60;;
22080;SDS011;11207;59.512;18.050;2022-12-29T00:12:03;4.10;;;3.80;;
22080;SDS011;11207;59.512;18.050;2022-12-29T00:14:29;4.50;;;3.70;;
22080;SDS011;11207;59.512;18.050;2022-12-29T00:17:14;4.60;;;4.20;;
22080;SDS011;11207;59.512;18.050;2022-12-29T00:19:40;4.40;;;3.97;;
22080;SDS011;11207;59.512;18.050;2022-12-29T00:22:24;4.00;;;3.70;;
22080;SDS011;11207;59.512;18.050;2022-12-29T00:25:10;3.83;;;3.53;;
22080;SDS011;11207;59.512;18.050;2022-12-29T00:27:55;4.57;;;4.17;;
22080;SDS011;11207;59.512;18.050;2022-12-29T00:30:40;4.33;;;3.97;;
22080;SDS011;11207;59.512;18.050;2022-12-29T00:33:26;4.13;;;3.83;;
22080;SDS011;11207;59.512;18.050;2022-12-29T00:36:18;5.60;;;3.93;;
22080;SDS011;11207;59.512;18.050;2022-12-29T00:38:49;4.00;;;3.70;;
22080;SDS011;11207;59.512;18.050;2022-12-29T00:41:39;4.40;;;4.00;;
22080;SDS011;11207;59.512;18.050;2022-12-29T00:44:23;4.30;;;4.00;;
22080;SDS011;11207;59.512;18.050;2022-12-29T00:46:48;4.00;;;3.70;;
22080;SDS011;11207;59.512;18.050;2022-12-29T00:49:14;4.67;;;3.87;;
22080;SDS011;11207;59.512;18.050;2022-12-29T00:51:56;4.20;;;3.80;;
22080;SDS011;11207;59.512;18.050;2022-12-29T00:54:23;4.00;;;3.70;;
22080;SDS011;11207;59.512;18.050;2022-12-29T00:56:50;4.00;;;3.70;;
22080;SDS011;11207;59.512;18.050;2022-12-29T00:59:17;4.10;;;3.80;;
22080;SDS011;11207;59.512;18.050;2022-12-29T01:01:43;4.30;;;3.90;;
22080;SDS011;11207;59.512;18.050;2022-12-29T01:04:10;4.47;;;4.10;;
22080;SDS011;11207;59.512;18.050;2022-12-29T01:06:37;3.97;;;3.67;;
22080;SDS011;11207;59.512;18.050;2022-12-29T01:09:04;3.77;;;3.57;;
22080;SDS011;11207;59.512;18.050;2022-12-29T01:11:49;4.23;;;3.63;;
22080;SDS011;11207;59.512;18.050;2022-12-29T01:14:15;3.90;;;3.60;;
22080;SDS011;11207;59.512;18.050;2022-12-29T01:16:42;3.70;;;3.40;;
22080;SDS011;11207;59.512;18.050;2022-12-29T01:19:07;4.20;;;3.80;;
22080;SDS011;11207;59.512;18.050;2022-12-29T01:21:34;4.40;;;3.63;;
22080;SDS011;11207;59.512;18.050;2022-12-29T01:23:59;3.70;;;3.40;;
22080;SDS011;11207;59.512;18.050;2022-12-29T01:26:25;3.63;;;3.43;;
22080;SDS011;11207;59.512;18.050;2022-12-29T01:28:50;3.60;;;3.40;;
22080;SDS011;11207;59.512;18.050;2022-12-29T01:31:17;3.77;;;3.47;;
22080;SDS011;11207;59.512;18.050;2022-12-29T01:33:43;3.70;;;3.40;;
22080;SDS011;11207;59.512;18.050;2022-12-29T01:36:10;3.80;;;3.50;;
22080;SDS011;11207;59.512;18.050;2022-12-29T01:38:38;5.03;;;3.77;;
22080;SDS011;11207;59.512;18.050;2022-12-29T01:41:04;4.00;;;3.70;;
22080;SDS011;11207;59.512;18.050;2022-12-29T01:46:25;3.80;;;3.50;;
22080;SDS011;11207;59.512;18.050;2022-12-29T01:48:57;3.73;;;3.43;;
22080;SDS011;11207;59.512;18.050;2022-12-29T01:51:25;4.10;;;3.60;;
22080;SDS011;11207;59.512;18.050;2022-12-29T01:53:54;3.47;;;3.23;;
22080;SDS011;11207;59.512;18.050;2022-12-29T01:56:21;3.50;;;3.20;;
22080;SDS011;11207;59.512;18.050;2022-12-29T01:58:48;3.70;;;3.47;;
22080;SDS011;11207;59.512;18.050;2022-12-29T02:01:18;3.60;;;3.30;;
22080;SDS011;11207;59.512;18.050;2022-12-29T02:03:45;3.43;;;3.23;;
22080;SDS011;11207;59.512;18.050;2022-12-29T02:06:14;3.30;;;3.10;;
22080;SDS011;11207;59.512;18.050;2022-12-29T02:08:47;3.23;;;3.03;;
22080;SDS011;11207;59.512;18.050;2022-12-29T02:11:16;3.40;;;3.20;;
22080;SDS011;11207;59.512;18.050;2022-12-29T02:13:42;3.70;;;3.40;;
22080;SDS011;11207;59.512;18.050;2022-12-29T02:18:56;3.70;;;3.40;;
22080;SDS011;11207;59.512;18.050;2022-12-29T02:21:53;3.70;;;3.40;;
22080;SDS011;11207;59.512;18.050;2022-12-29T02:27:19;3.50;;;3.30;;
22080;SDS011;11207;59.512;18.050;2022-12-29T02:33:19;7.33;;;4.43;;
22080;SDS011;11207;59.512;18.050;2022-12-29T02:41:18;4.00;;;3.70;;
22080;SDS011;11207;59.512;18.050;2022-12-29T02:49:19;4.33;;;3.93;;
22080;SDS011;11207;59.512;18.050;2022-12-29T02:51:54;4.20;;;3.90;;
22080;SDS011;11207;59.512;18.050;2022-12-29T02:54:29;4.37;;;3.97;;
22080;SDS011;11207;59.512;18.050;2022-12-29T02:57:15;4.23;;;3.60;;
22080;SDS011;11207;59.512;18.050;2022-12-29T02:59:41;3.90;;;3.60;;
22080;SDS011;11207;59.512;18.050;2022-12-29T03:02:30;4.00;;;3.70;;
22080;SDS011;11207;59.512;18.050;2022-12-29T03:05:22;4.97;;;3.97;;
22080;SDS011;11207;59.512;18.050;2022-12-29T03:08:28;3.90;;;3.60;;
22080;SDS011;11207;59.512;18.050;2022-12-29T03:11:15;10.00;;;5.33;;
22080;SDS011;11207;59.512;18.050;2022-12-29T03:14:33;4.90;;;4.40;;
22080;SDS011;11207;59.512;18.050;2022-12-29T03:17:20;5.00;;;4.53;;
22080;SDS011;11207;59.512;18.050;2022-12-29T03:19:47;7.60;;;5.43;;
22080;SDS011;11207;59.512;18.050;2022-12-29T03:22:17;5.83;;;4.90;;
22080;SDS011;11207;59.512;18.050;2022-12-29T03:24:57;6.00;;;5.10;;
22080;SDS011;11207;59.512;18.050;2022-12-29T03:27:29;10.07;;;6.00;;
22080;SDS011;11207;59.512;18.050;2022-12-29T03:29:58;5.10;;;4.70;;
22080;SDS011;11207;59.512;18.050;2022-12-29T03:32:32;5.53;;;4.27;;
22080;SDS011;11207;59.512;18.050;2022-12-29T03:35:02;4.63;;;4.23;;
22080;SDS011;11207;59.512;18.050;2022-12-29T03:37:30;5.20;;;4.70;;
22080;SDS011;11207;59.512;18.050;2022-12-29T03:40:03;10.47;;;6.13;;
22080;SDS011;11207;59.512;18.050;2022-12-29T03:42:30;4.73;;;4.33;;
22080;SDS011;11207;59.512;18.050;2022-12-29T03:44:59;5.77;;;4.97;;
22080;SDS011;11207;59.512;18.050;2022-12-29T03:47:25;6.47;;;5.33;;
22080;SDS011;11207;59.512;18.050;2022-12-29T03:49:51;5.00;;;4.60;;
22080;SDS011;11207;59.512;18.050;2022-12-29T03:52:16;4.93;;;4.40;;
22080;SDS011;11207;59.512;18.050;2022-12-29T03:54:43;8.37;;;5.23;;
22080;SDS011;11207;59.512;18.050;2022-12-29T03:57:09;9.23;;;5.53;;
22080;SDS011;11207;59.512;18.050;2022-12-29T03:59:35;4.80;;;4.40;;
22080;SDS011;11207;59.512;18.050;2022-12-29T04:02:01;5.17;;;4.67;;
22080;SDS011;11207;59.512;18.050;2022-12-29T04:04:27;8.20;;;5.20;;
22080;SDS011;11207;59.512;18.050;2022-12-29T04:06:52;5.13;;;4.63;;
22080;SDS011;11207;59.512;18.050;2022-12-29T04:09:18;5.20;;;4.70;;
22080;SDS011;11207;59.512;18.050;2022-12-29T04:11:44;5.30;;;4.70;;
22080;SDS011;11207;59.512;18.050;2022-12-29T04:14:09;10.93;;;5.43;;
22080;SDS011;11207;59.512;18.050;2022-12-29T04:16:35;5.47;;;5.00;;
22080;SDS011;11207;59.512;18.050;2022-12-29T04:19:03;5.80;;;4.80;;
22080;SDS011;11207;59.512;18.050;2022-12-29T04:21:29;6.37;;;5.10;;
22080;SDS011;11207;59.512;18.050;2022-12-29T04:23:55;5.73;;;4.97;;
22080;SDS011;11207;59.512;18.050;2022-12-29T04:26:20;7.03;;;5.30;;
22080;SDS011;11207;59.512;18.050;2022-12-29T04:28:46;6.07;;;5.47;;
22080;SDS011;11207;59.512;18.050;2022-12-29T04:31:11;6.13;;;5.53;;
22080;SDS011;11207;59.512;18.050;2022-12-29T04:33:37;15.57;;;8.00;;
22080;SDS011;11207;59.512;18.050;2022-12-29T04:36:03;17.83;;;8.97;;
22080;SDS011;11207;59.512;18.050;2022-12-29T04:38:28;6.00;;;5.40;;
22080;SDS011;11207;59.512;18.050;2022-12-29T04:40:54;9.50;;;6.93;;
22080;SDS011;11207;59.512;18.050;2022-12-29T04:43:20;6.77;;;6.07;;
22080;SDS011;11207;59.512;18.050;2022-12-29T04:45:47;6.53;;;5.70;;
22080;SDS011;11207;59.512;18.050;2022-12-29T04:48:13;6.37;;;5.77;;
22080;SDS011;11207;59.512;18.050;2022-12-29T04:50:39;11.97;;;6.97;;
22080;SDS011;11207;59.512;18.050;2022-12-29T04:53:06;7.13;;;5.70;;
22080;SDS011;11207;59.512;18.050;2022-12-29T04:55:32;8.33;;;5.70;;
22080;SDS011;11207;59.512;18.050;2022-12-29T04:57:57;9.30;;;5.90;;
22080;SDS011;11207;59.512;18.050;2022-12-29T05:00:23;6.17;;;5.57;;
22080;SDS011;11207;59.512;18.050;2022-12-29T05:02:49;7.00;;;5.57;;
22080;SDS011;11207;59.512;18.050;2022-12-29T05:05:15;7.63;;;5.03;;
22080;SDS011;11207;59.512;18.050;2022-12-29T05:07:41;12.40;;;6.47;;
22080;SDS011;11207;59.512;18.050;2022-12-29T05:10:07;5.70;;;5.20;;
22080;SDS011;11207;59.512;18.050;2022-12-29T05:12:33;7.70;;;5.73;;
22080;SDS011;11207;59.512;18.050;2022-12-29T05:14:59;8.07;;;5.83;;
22080;SDS011;11207;59.512;18.050;2022-12-29T05:17:25;6.77;;;6.03;;
22080;SDS011;11207;59.512;18.050;2022-12-29T05:19:51;6.93;;;6.23;;
22080;SDS011;11207;59.512;18.050;2022-12-29T05:22:17;6.13;;;5.53;;
22080;SDS011;11207;59.512;18.050;2022-12-29T05:24:42;8.33;;;6.37;;
22080;SDS011;11207;59.512;18.050;2022-12-29T05:27:08;9.40;;;7.00;;
22080;SDS011;11207;59.512;18.050;2022-12-29T05:29:34;15.87;;;7.67;;
22080;SDS011;11207;59.512;18.050;2022-12-29T05:31:59;12.40;;;6.13;;
22080;SDS011;11207;59.512;18.050;2022-12-29T05:34:25;14.23;;;7.80;;
22080;SDS011;11207;59.512;18.050;2022-12-29T05:36:51;7.73;;;6.53;;
22080;SDS011;11207;59.512;18.050;2022-12-29T05:39:16;13.60;;;7.40;;
22080;SDS011;11207;59.512;18.050;2022-12-29T05:41:42;9.83;;;6.77;;
22080;SDS011;11207;59.512;18.050;2022-12-29T05:44:07;11.20;;;6.57;;
22080;SDS011;11207;59.512;18.050;2022-12-29T05:46:34;8.87;;;5.90;;
22080;SDS011;11207;59.512;18.050;2022-12-29T05:49:00;6.30;;;5.70;;
22080;SDS011;11207;59.512;18.050;2022-12-29T05:51:25;8.93;;;6.43;;
22080;SDS011;11207;59.512;18.050;2022-12-29T05:53:51;14.83;;;6.30;;
22080;SDS011;11207;59.512;18.050;2022-12-29T05:56:17;15.00;;;7.70;;
22080;SDS011;11207;59.512;18.050;2022-12-29T05:58:43;5.37;;;4.90;;
22080;SDS011;11207;59.512;18.050;2022-12-29T06:01:08;11.37;;;6.80;;
22080;SDS011;11207;59.512;18.050;2022-12-29T06:03:34;12.60;;;6.23;;
22080;SDS011;11207;59.512;18.050;2022-12-29T06:05:59;5.77;;;5.07;;
22080;SDS011;11207;59.512;18.050;2022-12-29T06:08:25;8.30;;;6.40;;
22080;SDS011;11207;59.512;18.050;2022-12-29T06:10:51;10.07;;;5.93;;
22080;SDS011;11207;59.512;18.050;2022-12-29T06:13:16;14.27;;;7.40;;
22080;SDS011;11207;59.512;18.050;2022-12-29T06:15:42;8.27;;;5.93;;
22080;SDS011;11207;59.512;18.050;2022-12-29T06:18:07;10.13;;;6.90;;
22080;SDS011;11207;59.512;18.050;2022-12-29T06:20:33;9.27;;;5.40;;
22080;SDS011;11207;59.512;18.050;2022-12-29T06:22:59;8.60;;;6.07;;
22080;SDS011;11207;59.512;18.050;2022-12-29T06:25:25;16.70;;;8.07;;
22080;SDS011;11207;59.512;18.050;2022-12-29T06:27:50;11.80;;;7.90;;
22080;SDS011;11207;59.512;18.050;2022-12-29T06:30:16;12.40;;;7.40;;
22080;SDS011;11207;59.512;18.050;2022-12-29T06:32:42;7.73;;;6.63;;
22080;SDS011;11207;59.512;18.050;2022-12-29T06:35:08;10.30;;;6.23;;
22080;SDS011;11207;59.512;18.050;2022-12-29T06:37:34;12.00;;;6.90;;
22080;SDS011;11207;59.512;18.050;2022-12-29T06:40:00;7.27;;;5.93;;
22080;SDS011;11207;59.512;18.050;2022-12-29T06:42:26;11.53;;;7.60;;
22080;SDS011;11207;59.512;18.050;2022-12-29T06:44:52;7.70;;;5.90;;
22080;SDS011;11207;59.512;18.050;2022-12-29T06:47:18;8.37;;;6.43;;
22080;SDS011;11207;59.512;18.050;2022-12-29T06:49:44;6.87;;;5.03;;
22080;SDS011;11207;59.512;18.050;2022-12-29T06:52:09;10.23;;;6.20;;
22080;SDS011;11207;59.512;18.050;2022-12-29T06:54:35;9.43;;;6.27;;
22080;SDS011;11207;59.512;18.050;2022-12-29T06:57:01;5.67;;;5.10;;
22080;SDS011;11207;59.512;18.050;2022-12-29T06:59:26;5.60;;;4.53;;
22080;SDS011;11207;59.512;18.050;2022-12-29T07:01:52;9.00;;;5.93;;
22080;SDS011;11207;59.512;18.050;2022-12-29T07:04:18;6.97;;;5.10;;
22080;SDS011;11207;59.512;18.050;2022-12-29T07:06:43;8.93;;;5.07;;
22080;SDS011;11207;59.512;18.050;2022-12-29T07:09:09;6.63;;;4.97;;
22080;SDS011;11207;59.512;18.050;2022-12-29T07:11:35;6.53;;;5.30;;
22080;SDS011;11207;59.512;18.050;2022-12-29T07:14:01;7.93;;;5.67;;
22080;SDS011;11207;59.512;18.050;2022-12-29T07:16:27;9.10;;;6.23;;
22080;SDS011;11207;59.512;18.050;2022-12-29T07:18:54;7.33;;;5.10;;
22080;SDS011;11207;59.512;18.050;2022-12-29T07:21:20;7.10;;;5.20;;
22080;SDS011;11207;59.512;18.050;2022-12-29T07:23:46;9.77;;;5.93;;
22080;SDS011;11207;59.512;18.050;2022-12-29T07:26:12;14.23;;;6.73;;
22080;SDS011;11207;59.512;18.050;2022-12-29T07:28:39;16.37;;;7.77;;
22080;SDS011;11207;59.512;18.050;2022-12-29T07:31:07;11.90;;;6.60;;
22080;SDS011;11207;59.512;18.050;2022-12-29T07:33:45;15.60;;;7.80;;
22080;SDS011;11207;59.512;18.050;2022-12-29T07:36:12;17.67;;;7.27;;
22080;SDS011;11207;59.512;18.050;2022-12-29T07:38:38;10.73;;;6.23;;
22080;SDS011;11207;59.512;18.050;2022-12-29T07:41:04;9.17;;;6.73;;
22080;SDS011;11207;59.512;18.050;2022-12-29T07:43:30;9.97;;;6.53;;
22080;SDS011;11207;59.512;18.050;2022-12-29T07:45:55;7.27;;;5.93;;
22080;SDS011;11207;59.512;18.050;2022-12-29T07:48:21;6.17;;;5.57;;
22080;SDS011;11207;59.512;18.050;2022-12-29T07:50:47;22.80;;;7.47;;
22080;SDS011;11207;59.512;18.050;2022-12-29T07:53:13;38.77;;;7.70;;
22080;SDS011;11207;59.512;18.050;2022-12-29T07:55:39;16.77;;;7.37;;
22080;SDS011;11207;59.512;18.050;2022-12-29T07:58:05;28.77;;;8.00;;
22080;SDS011;11207;59.512;18.050;2022-12-29T08:00:31;33.43;;;9.40;;
22080;SDS011;11207;59.512;18.050;2022-12-29T08:02:57;9.30;;;6.40;;
22080;SDS011;11207;59.512;18.050;2022-12-29T08:05:22;11.67;;;7.60;;
22080;SDS011;11207;59.512;18.050;2022-12-29T08:07:48;28.53;;;10.00;;
22080;SDS011;11207;59.512;18.050;2022-12-29T08:10:14;10.27;;;7.10;;
22080;SDS011;11207;59.512;18.050;2022-12-29T08:12:40;11.50;;;6.77;;
22080;SDS011;11207;59.512;18.050;2022-12-29T08:15:07;9.67;;;6.87;;
22080;SDS011;11207;59.512;18.050;2022-12-29T08:17:34;7.70;;;5.73;;
22080;SDS011;11207;59.512;18.050;2022-12-29T08:20:00;23.63;;;7.27;;
22080;SDS011;11207;59.512;18.050;2022-12-29T08:22:25;12.27;;;7.13;;
22080;SDS011;11207;59.512;18.050;2022-12-29T08:24:51;25.03;;;7.80;;
22080;SDS011;11207;59.512;18.050;2022-12-29T08:27:17;25.90;;;7.30;;
22080;SDS011;11207;59.512;18.050;2022-12-29T08:29:43;27.83;;;8.83;;
22080;SDS011;11207;59.512;18.050;2022-12-29T08:32:09;27.77;;;8.97;;
22080;SDS011;11207;59.512;18.050;2022-12-29T08:34:35;9.97;;;7.00;;
22080;SDS011;11207;59.512;18.050;2022-12-29T08:37:01;35.60;;;9.00;;
22080;SDS011;11207;59.512;18.050;2022-12-29T08:39:27;19.20;;;7.53;;
22080;SDS011;11207;59.512;18.050;2022-12-29T08:41:53;20.97;;;7.73;;
22080;SDS011;11207;59.512;18.050;2022-12-29T08:44:19;14.97;;;7.17;;
22080;SDS011;11207;59.512;18.050;2022-12-29T08:46:47;18.53;;;9.47;;
22080;SDS011;11207;59.512;18.050;2022-12-29T08:49:13;25.17;;;9.13;;
22080;SDS011;11207;59.512;18.050;2022-12-29T08:51:38;11.10;;;7.27;;
22080;SDS011;11207;59.512;18.050;2022-12-29T08:54:04;12.17;;;7.70;;
22080;SDS011;11207;59.512;18.050;2022-12-29T08:56:30;18.40;;;9.57;;
22080;SDS011;11207;59.512;18.050;2022-12-29T08:58:56;19.63;;;8.57;;
22080;SDS011;11207;59.512;18.050;2022-12-29T09:01:22;12.90;;;7.90;;
22080;SDS011;11207;59.512;18.050;2022-12-29T09:03:47;26.20;;;9.70;;
22080;SDS011;11207;59.512;18.050;2022-12-29T09:06:13;21.67;;;9.17;;
22080;SDS011;11207;59.512;18.050;2022-12-29T09:08:39;19.17;;;8.07;;
22080;SDS011;11207;59.512;18.050;2022-12-29T09:11:09;7.93;;;6.23;;
22080;SDS011;11207;59.512;18.050;2022-12-29T09:13:38;19.83;;;9.10;;
22080;SDS011;11207;59.512;18.050;2022-12-29T09:16:17;20.93;;;8.43;;
22080;SDS011;11207;59.512;18.050;2022-12-29T09:18:43;14.87;;;7.57;;
22080;SDS011;11207;59.512;18.050;2022-12-29T09:21:09;10.10;;;6.67;;
22080;SDS011;11207;59.512;18.050;2022-12-29T09:23:36;14.70;;;7.37;;
22080;SDS011;11207;59.512;18.050;2022-12-29T09:26:03;9.70;;;5.57;;
22080;SDS011;11207;59.512;18.050;2022-12-29T09:28:29;10.63;;;7.13;;
22080;SDS011;11207;59.512;18.050;2022-12-29T09:30:56;6.63;;;5.17;;
22080;SDS011;11207;59.512;18.050;2022-12-29T09:33:23;8.47;;;5.80;;
22080;SDS011;11207;59.512;18.050;2022-12-29T09:35:52;8.47;;;5.07;;
22080;SDS011;11207;59.512;18.050;2022-12-29T09:38:20;10.80;;;6.67;;
22080;SDS011;11207;59.512;18.050;2022-12-29T09:40:50;7.13;;;5.77;;
22080;SDS011;11207;59.512;18.050;2022-12-29T09:46:05;5.10;;;4.60;;
22080;SDS011;11207;59.512;18.050;2022-12-29T09:48:54;4.73;;;4.13;;
22080;SDS011;11207;59.512;18.050;2022-12-29T09:51:33;5.03;;;4.10;;
22080;SDS011;11207;59.512;18.050;2022-12-29T09:54:04;4.57;;;4.10;;
22080;SDS011;11207;59.512;18.050;2022-12-29T09:56:37;7.47;;;4.00;;
22080;SDS011;11207;59.512;18.050;2022-12-29T09:59:08;7.67;;;4.73;;
22080;SDS011;11207;59.512;18.050;2022-12-29T10:04:29;4.67;;;4.17;;
22080;SDS011;11207;59.512;18.050;2022-12-29T10:07:08;5.37;;;3.53;;
22080;SDS011;11207;59.512;18.050;2022-12-29T10:20:33;6.13;;;3.43;;
22080;SDS011;11207;59.512;18.050;2022-12-29T10:23:16;3.93;;;3.60;;
22080;SDS011;11207;59.512;18.050;2022-12-29T10:25:46;3.63;;;3.40;;
22080;SDS011;11207;59.512;18.050;2022-12-29T10:28:17;3.30;;;3.10;;
22080;SDS011;11207;59.512;18.050;2022-12-29T10:30:46;4.20;;;3.77;;
22080;SDS011;11207;59.512;18.050;2022-12-29T10:33:18;3.60;;;3.30;;
22080;SDS011;11207;59.512;18.050;2022-12-29T10:35:48;3.00;;;2.80;;
22080;SDS011;11207;59.512;18.050;2022-12-29T10:38:20;4.07;;;3.60;;
22080;SDS011;11207;59.512;18.050;2022-12-29T10:41:02;3.40;;;3.20;;
22080;SDS011;11207;59.512;18.050;2022-12-29T10:43:45;3.40;;;3.20;;
22080;SDS011;11207;59.512;18.050;2022-12-29T10:46:17;6.77;;;3.73;;
22080;SDS011;11207;59.512;18.050;2022-12-29T10:48:46;3.50;;;3.20;;
22080;SDS011;11207;59.512;18.050;2022-12-29T10:51:20;3.30;;;3.00;;
22080;SDS011;11207;59.512;18.050;2022-12-29T10:56:27;3.83;;;3.50;;
22080;SDS011;11207;59.512;18.050;2022-12-29T11:01:50;6.40;;;4.50;;
22080;SDS011;11207;59.512;18.050;2022-12-29T11:04:40;5.97;;;4.40;;
22080;SDS011;11207;59.512;18.050;2022-12-29T11:07:23;6.40;;;4.03;;
22080;SDS011;11207;59.512;18.050;2022-12-29T11:09:51;3.70;;;3.40;;
22080;SDS011;11207;59.512;18.050;2022-12-29T11:12:27;5.10;;;4.10;;
22080;SDS011;11207;59.512;18.050;2022-12-29T11:17:56;4.47;;;4.07;;
22080;SDS011;11207;59.512;18.050;2022-12-29T11:20:28;4.33;;;4.00;;
22080;SDS011;11207;59.512;18.050;2022-12-29T11:22:58;5.57;;;3.70;;
22080;SDS011;11207;59.512;18.050;2022-12-29T11:25:24;4.67;;;3.30;;
22080;SDS011;11207;59.512;18.050;2022-12-29T11:28:33;3.57;;;3.27;;
22080;SDS011;11207;59.512;18.050;2022-12-29T11:30:40;3.63;;;3.33;;
22080;SDS011;11207;59.512;18.050;2022-12-29T11:33:07;3.20;;;3.00;;
22080;SDS011;11207;59.512;18.050;2022-12-29T11:35:41;3.50;;;3.20;;
22080;SDS011;11207;59.512;18.050;2022-12-29T11:38:25;4.27;;;3.20;;
22080;SDS011;11207;59.512;18.050;2022-12-29T11:40:59;3.50;;;3.03;;
22080;SDS011;11207;59.512;18.050;2022-12-29T11:43:28;4.20;;;3.77;;
22080;SDS011;11207;59.512;18.050;2022-12-29T11:46:00;3.47;;;3.17;;
22080;SDS011;11207;59.512;18.050;2022-12-29T11:48:29;3.00;;;2.80;;
22080;SDS011;11207;59.512;18.050;2022-12-29T11:50:58;4.33;;;3.53;;
22080;SDS011;11207;59.512;18.050;2022-12-29T11:55:58;3.10;;;2.83;;
22080;SDS011;11207;59.512;18.050;2022-12-29T11:58:33;5.83;;;3.00;;
22080;SDS011;11207;59.512;18.050;2022-12-29T12:03:54;3.40;;;3.20;;
22080;SDS011;11207;59.512;18.050;2022-12-29T12:06:26;3.40;;;3.10;;
22080;SDS011;11207;59.512;18.050;2022-12-29T12:08:54;3.50;;;3.30;;
22080;SDS011;11207;59.512;18.050;2022-12-29T12:11:42;5.17;;;3.87;;
22080;SDS011;11207;59.512;18.050;2022-12-29T12:17:04;3.27;;;3.07;;
22080;SDS011;11207;59.512;18.050;2022-12-29T12:19:45;5.90;;;3.57;;
22080;SDS011;11207;59.512;18.050;2022-12-29T12:24:56;3.27;;;3.07;;
22080;SDS011;11207;59.512;18.050;2022-12-29T12:27:37;3.60;;;3.30;;
22080;SDS011;11207;59.512;18.050;2022-12-29T12:30:21;3.00;;;2.80;;
22080;SDS011;11207;59.512;18.050;2022-12-29T12:33:05;3.47;;;3.27;;
22080;SDS011;11207;59.512;18.050;2022-12-29T12:38:54;3.70;;;3.40;;
22080;SDS011;11207;59.512;18.050;2022-12-29T12:41:42;4.07;;;3.77;;
22080;SDS011;11207;59.512;18.050;2022-12-29T12:53:20;5.60;;;3.57;;
22080;SDS011;11207;59.512;18.050;2022-12-29T13:04:43;3.13;;;2.93;;
22080;SDS011;11207;59.512;18.050;2022-12-29T13:10:19;3.20;;;3.00;;
22080;SDS011;11207;59.512;18.050;2022-12-29T13:21:50;3.70;;;3.40;;
22080;SDS011;11207;59.512;18.050;2022-12-29T13:29:59;3.63;;;3.37;;
22080;SDS011;11207;59.512;18.050;2022-12-29T13:38:23;4.00;;;3.70;;
22080;SDS011;11207;59.512;18.050;2022-12-29T13:41:07;4.00;;;3.70;;
22080;SDS011;11207;59.512;18.050;2022-12-29T13:43:37;3.43;;;3.13;;
22080;SDS011;11207;59.512;18.050;2022-12-29T13:46:15;3.93;;;3.53;;
22080;SDS011;11207;59.512;18.050;2022-12-29T13:51:34;4.10;;;3.73;;
22080;SDS011;11207;59.512;18.050;2022-12-29T13:54:12;3.80;;;3.50;;
22080;SDS011;11207;59.512;18.050;2022-12-29T13:59:26;3.50;;;3.30;;
22080;SDS011;11207;59.512;18.050;2022-12-29T14:07:48;4.23;;;3.83;;
22080;SDS011;11207;59.512;18.050;2022-12-29T14:15:40;4.77;;;3.87;;
22080;SDS011;11207;59.512;18.050;2022-12-29T14:18:13;4.57;;;4.17;;
22080;SDS011;11207;59.512;18.050;2022-12-29T14:21:26;4.60;;;4.20;;
22080;SDS011;11207;59.512;18.050;2022-12-29T14:23:43;3.90;;;3.60;;
22080;SDS011;11207;59.512;18.050;2022-12-29T14:28:57;4.23;;;3.90;;
22080;SDS011;11207;59.512;18.050;2022-12-29T14:32:00;4.30;;;3.97;;
22080;SDS011;11207;59.512;18.050;2022-12-29T14:34:30;5.07;;;4.53;;
22080;SDS011;11207;59.512;18.050;2022-12-29T14:37:03;3.50;;;3.30;;
22080;SDS011;11207;59.512;18.050;2022-12-29T14:47:16;4.00;;;3.70;;
22080;SDS011;11207;59.512;18.050;2022-12-29T14:49:52;4.17;;;3.87;;
22080;SDS011;11207;59.512;18.050;2022-12-29T14:52:20;4.30;;;4.00;;
22080;SDS011;11207;59.512;18.050;2022-12-29T14:54:51;4.10;;;3.80;;
22080;SDS011;11207;59.512;18.050;2022-12-29T14:57:40;4.50;;;4.10;;
22080;SDS011;11207;59.512;18.050;2022-12-29T15:02:38;3.77;;;3.43;;
22080;SDS011;11207;59.512;18.050;2022-12-29T15:08:06;4.40;;;3.70;;
22080;SDS011;11207;59.512;18.050;2022-12-29T15:10:35;5.17;;;4.27;;
22080;SDS011;11207;59.512;18.050;2022-12-29T15:13:13;5.70;;;4.53;;
22080;SDS011;11207;59.512;18.050;2022-12-29T15:15:42;5.37;;;4.63;;
22080;SDS011;11207;59.512;18.050;2022-12-29T15:18:13;4.90;;;4.50;;
22080;SDS011;11207;59.512;18.050;2022-12-29T15:20:50;7.93;;;5.57;;
22080;SDS011;11207;59.512;18.050;2022-12-29T15:23:23;7.70;;;5.03;;
22080;SDS011;11207;59.512;18.050;2022-12-29T15:25:50;7.30;;;6.17;;
22080;SDS011;11207;59.512;18.050;2022-12-29T15:28:23;9.30;;;7.10;;
22080;SDS011;11207;59.512;18.050;2022-12-29T15:31:34;7.10;;;6.40;;
22080;SDS011;11207;59.512;18.050;2022-12-29T15:33:39;11.87;;;9.73;;
22080;SDS011;11207;59.512;18.050;2022-12-29T15:36:10;8.07;;;6.80;;
22080;SDS011;11207;59.512;18.050;2022-12-29T15:38:38;6.30;;;5.70;;
22080;SDS011;11207;59.512;18.050;2022-12-29T15:44:13;14.50;;;8.30;;
22080;SDS011;11207;59.512;18.050;2022-12-29T15:46:45;8.50;;;6.27;;
22080;SDS011;11207;59.512;18.050;2022-12-29T15:49:11;9.00;;;6.80;;
22080;SDS011;11207;59.512;18.050;2022-12-29T15:51:40;10.03;;;7.07;;
22080;SDS011;11207;59.512;18.050;2022-12-29T15:54:06;8.93;;;7.37;;
22080;SDS011;11207;59.512;18.050;2022-12-29T15:56:41;10.70;;;7.53;;
22080;SDS011;11207;59.512;18.050;2022-12-29T15:59:27;7.47;;;6.27;;
22080;SDS011;11207;59.512;18.050;2022-12-29T16:01:55;6.03;;;5.27;;
22080;SDS011;11207;59.512;18.050;2022-12-29T16:04:22;6.13;;;5.57;;
22080;SDS011;11207;59.512;18.050;2022-12-29T16:06:58;6.80;;;6.10;;
22080;SDS011;11207;59.512;18.050;2022-12-29T16:09:34;8.90;;;5.63;;
22080;SDS011;11207;59.512;18.050;2022-12-29T16:12:06;6.07;;;5.47;;
22080;SDS011;11207;59.512;18.050;2022-12-29T16:14:52;8.63;;;6.03;;
22080;SDS011;11207;59.512;18.050;2022-12-29T16:17:22;5.37;;;4.87;;
22080;SDS011;11207;59.512;18.050;2022-12-29T16:19:56;8.13;;;5.80;;
22080;SDS011;11207;59.512;18.050;2022-12-29T16:24:58;6.47;;;5.20;;
22080;SDS011;11207;59.512;18.050;2022-12-29T16:27:30;6.20;;;5.60;;
22080;SDS011;11207;59.512;18.050;2022-12-29T16:30:06;5.43;;;4.93;;
22080;SDS011;11207;59.512;18.050;2022-12-29T16:32:48;6.77;;;5.90;;
22080;SDS011;11207;59.512;18.050;2022-12-29T16:37:49;6.10;;;5.10;;
22080;SDS011;11207;59.512;18.050;2022-12-29T16:40:31;8.33;;;5.80;;
22080;SDS011;11207;59.512;18.050;2022-12-29T16:42:58;8.00;;;5.43;;
22080;SDS011;11207;59.512;18.050;2022-12-29T16:45:54;6.60;;;4.97;;
22080;SDS011;11207;59.512;18.050;2022-12-29T16:50:47;5.70;;;4.90;;
22080;SDS011;11207;59.512;18.050;2022-12-29T16:53:21;4.70;;;4.30;;
22080;SDS011;11207;59.512;18.050;2022-12-29T16:55:52;4.57;;;4.17;;
22080;SDS011;11207;59.512;18.050;2022-12-29T16:58:20;6.77;;;4.53;;
22080;SDS011;11207;59.512;18.050;2022-12-29T17:00:48;8.20;;;5.83;;
22080;SDS011;11207;59.512;18.050;2022-12-29T17:03:16;6.63;;;5.37;;
22080;SDS011;11207;59.512;18.050;2022-12-29T17:05:42;5.47;;;4.97;;
22080;SDS011;11207;59.512;18.050;2022-12-29T17:08:17;5.23;;;4.73;;
22080;SDS011;11207;59.512;18.050;2022-12-29T17:10:51;4.67;;;4.20;;
22080;SDS011;11207;59.512;18.050;2022-12-29T17:13:38;5.83;;;4.87;;
22080;SDS011;11207;59.512;18.050;2022-12-29T17:16:07;8.37;;;5.13;;
22080;SDS011;11207;59.512;18.050;2022-12-29T17:18:35;7.97;;;4.63;;